createdAt,value
2023-10-05T00:01:47.721Z,97801.00
2023-10-05T00:04:17.165Z,97805.28
2023-10-05T00:06:47.964Z,97802.94
2023-10-05T00:09:18.099Z,97799.34
2023-10-05T00:11:46.553Z,97815.19
2023-10-05T00:14:14.264Z,97807.81
2023-10-05T00:16:45.931Z,97815.78
2023-10-05T00:19:18.711Z,97811.00
2023-10-05T00:21:52.153Z,97810.16
2023-10-05T00:24:27.844Z,97797.13
2023-10-05T00:26:57.313Z,97792.59
2023-10-05T00:29:28.922Z,97791.13
2023-10-05T00:32:00.168Z,97796.72
2023-10-05T00:34:30.018Z,97791.13
2023-10-05T00:37:00.150Z,97795.94
2023-10-05T00:39:30.697Z,97803.31
2023-10-05T00:42:09.838Z,97798.66
2023-10-05T00:44:40.658Z,97803.91
2023-10-05T00:47:08.455Z,97804.66
2023-10-05T00:49:46.802Z,97809.47
2023-10-05T00:52:17.520Z,97811.94
2023-10-05T00:54:49.570Z,97809.31
2023-10-05T00:57:20.841Z,97813.66
2023-10-05T00:59:59.094Z,97812.09
2023-10-05T01:02:27.968Z,97818.22
2023-10-05T01:04:58.284Z,97819.09
2023-10-05T01:07:44.836Z,97814.41
2023-10-05T01:10:42.109Z,97815.06
2023-10-05T01:13:34.193Z,97810.69
2023-10-05T01:16:16.715Z,97812.16
2023-10-05T01:18:45.181Z,97806.59
2023-10-05T01:21:12.912Z,97804.22
2023-10-05T01:23:43.119Z,97804.22
2023-10-05T01:26:12.028Z,97808.19
2023-10-05T01:28:41.932Z,97807.38
2023-10-05T01:31:10.750Z,97804.22
2023-10-05T01:33:39.091Z,97797.06
2023-10-05T01:36:07.259Z,97789.09
2023-10-05T01:38:38.929Z,97791.25
2023-10-05T01:41:10.198Z,97786.38
2023-10-05T01:43:43.458Z,97787.16
2023-10-05T01:46:12.773Z,97793.03
2023-10-05T01:48:42.008Z,97796.53
2023-10-05T01:51:11.842Z,97798.13
2023-10-05T01:53:41.205Z,97798.97
2023-10-05T01:56:18.775Z,97794.31
2023-10-05T01:58:51.331Z,97790.31
2023-10-05T02:01:21.979Z,97787.31
2023-10-05T02:03:51.399Z,97784.84
2023-10-05T02:06:19.499Z,97787.41
2023-10-05T02:08:47.163Z,97783.28
2023-10-05T02:11:20.017Z,97771.56
2023-10-05T02:13:48.908Z,97769.41
2023-10-05T02:16:19.199Z,97761.97
2023-10-05T02:18:47.584Z,97764.56
2023-10-05T02:21:18.780Z,97764.63
2023-10-05T02:23:48.796Z,97773.69
2023-10-05T02:26:29.858Z,97773.22
2023-10-05T02:28:58.930Z,97766.28
2023-10-05T02:31:30.073Z,97762.00
2023-10-05T02:33:59.500Z,97764.13
2023-10-05T02:36:28.587Z,97766.09
2023-10-05T02:38:56.226Z,97756.75
2023-10-05T02:41:38.824Z,97754.63
2023-10-05T02:44:18.884Z,97754.34
2023-10-05T02:46:48.700Z,97763.75
2023-10-05T02:49:17.673Z,97762.31
2023-10-05T02:51:45.383Z,97754.03
2023-10-05T02:54:14.023Z,97760.09
2023-10-05T02:56:42.059Z,97759.00
2023-10-05T02:59:12.116Z,97755.25
2023-10-05T03:01:40.002Z,97760.63
2023-10-05T03:04:17.907Z,97761.81
2023-10-05T03:06:48.976Z,97760.91
2023-10-05T03:09:19.244Z,97762.66
2023-10-05T03:11:47.961Z,97759.72
2023-10-05T03:14:17.973Z,97760.19
2023-10-05T03:16:49.153Z,97756.97
2023-10-05T03:19:22.376Z,97759.06
2023-10-05T03:21:51.967Z,97754.00
2023-10-05T03:24:20.470Z,97756.41
2023-10-05T03:26:49.281Z,97752.94
2023-10-05T03:29:18.239Z,97753.50
2023-10-05T03:31:54.584Z,97754.78
2023-10-05T03:34:26.823Z,97760.47
2023-10-05T03:36:54.548Z,97748.63
2023-10-05T03:39:24.240Z,97750.91
2023-10-05T03:41:51.894Z,97753.72
2023-10-05T03:44:20.854Z,97751.53
2023-10-05T03:46:48.849Z,97749.66
2023-10-05T03:49:19.103Z,97762.88
2023-10-05T03:51:50.622Z,97769.81
2023-10-05T03:54:19.562Z,97766.63
2023-10-05T03:56:47.534Z,97749.66
2023-10-05T03:59:15.599Z,97752.16
2023-10-05T04:01:50.018Z,97759.06
2023-10-05T04:04:18.040Z,97754.97
2023-10-05T04:06:45.712Z,97762.06
2023-10-05T04:09:16.802Z,97752.56
2023-10-05T04:11:45.288Z,97748.16
2023-10-05T04:14:13.314Z,97755.16
2023-10-05T04:16:41.028Z,97743.41
2023-10-05T04:19:12.266Z,97743.88
2023-10-05T04:21:41.427Z,97740.13
2023-10-05T04:24:13.796Z,97747.75
2023-10-05T04:26:46.150Z,97762.38
2023-10-05T04:29:15.779Z,97757.56
2023-10-05T04:31:49.411Z,97760.78
2023-10-05T04:34:20.875Z,97757.09
2023-10-05T04:36:49.585Z,97755.19
2023-10-05T04:39:26.653Z,97760.78
2023-10-05T04:41:57.480Z,97760.19
2023-10-05T04:44:25.168Z,97760.72
2023-10-05T04:46:53.402Z,97760.31
2023-10-05T04:49:25.067Z,97765.81
2023-10-05T04:51:53.436Z,97763.94
2023-10-05T04:54:26.718Z,97770.22
2023-10-05T04:57:08.056Z,97771.63
2023-10-05T05:00:00.118Z,97783.38
2023-10-05T05:02:37.129Z,97785.66
2023-10-05T05:05:35.282Z,97786.38
2023-10-05T05:08:04.142Z,97788.44
2023-10-05T05:10:32.444Z,97792.69
2023-10-05T05:13:00.498Z,97792.53
2023-10-05T05:15:29.200Z,97796.56
2023-10-05T05:17:57.405Z,97786.41
2023-10-05T05:20:26.555Z,97785.31
2023-10-05T05:22:54.342Z,97790.31
2023-10-05T05:25:22.225Z,97774.66
2023-10-05T05:27:49.968Z,97774.63
2023-10-05T05:30:25.250Z,97782.56
2023-10-05T05:32:55.536Z,97778.44
2023-10-05T05:35:23.245Z,97781.09
2023-10-05T05:37:52.264Z,97781.84
2023-10-05T05:40:20.008Z,97787.19
2023-10-05T05:42:47.778Z,97782.00
2023-10-05T05:45:17.831Z,97777.44
2023-10-05T05:47:47.200Z,97778.09
2023-10-05T05:50:19.002Z,97786.03
2023-10-05T05:52:48.727Z,97800.00
2023-10-05T05:55:22.534Z,97794.31
2023-10-05T05:57:51.772Z,97785.69
2023-10-05T06:00:20.678Z,97793.78
2023-10-05T06:02:48.968Z,97807.09
2023-10-05T06:05:17.329Z,97809.06
2023-10-05T06:07:45.465Z,97816.63
2023-10-05T06:10:16.455Z,97810.38
2023-10-05T06:12:49.406Z,97804.91
2023-10-05T06:15:17.095Z,97793.38
2023-10-05T06:17:45.933Z,97796.31
2023-10-05T06:20:16.207Z,97784.03
2023-10-05T06:22:46.080Z,97782.38
2023-10-05T06:25:16.009Z,97784.31
2023-10-05T06:27:44.779Z,97779.31
2023-10-05T06:30:14.979Z,97779.22
2023-10-05T06:32:44.550Z,97772.22
2023-10-05T06:35:13.309Z,97775.69
2023-10-05T06:37:41.535Z,97790.78
2023-10-05T06:40:14.464Z,97801.81
2023-10-05T06:42:43.474Z,97807.59
2023-10-05T06:45:14.574Z,97804.50
2023-10-05T06:47:42.397Z,97813.75
2023-10-05T06:50:11.711Z,97812.56
2023-10-05T06:52:40.846Z,97817.50
2023-10-05T06:55:09.843Z,97810.88
2023-10-05T06:57:38.554Z,97828.91
2023-10-05T07:00:12.801Z,97822.53
2023-10-05T07:02:42.380Z,97821.72
2023-10-05T07:05:11.998Z,97834.50
2023-10-05T07:07:41.848Z,97840.34
2023-10-05T07:10:11.266Z,97847.28
2023-10-05T07:12:40.862Z,97838.38
2023-10-05T07:15:09.707Z,97839.44
2023-10-05T07:17:37.452Z,97860.63
2023-10-05T07:20:12.358Z,97859.44
2023-10-05T07:22:41.347Z,97847.00
2023-10-05T07:25:11.899Z,97845.63
2023-10-05T07:27:40.985Z,97850.19
2023-10-05T07:30:10.896Z,97844.56
2023-10-05T07:32:39.119Z,97837.59
2023-10-05T07:35:09.531Z,97850.06
2023-10-05T07:37:37.602Z,97852.47
2023-10-05T07:40:06.853Z,97845.34
2023-10-05T07:42:34.463Z,97837.72
2023-10-05T07:45:02.259Z,97829.25
2023-10-05T07:47:29.973Z,97835.56
2023-10-05T07:49:57.662Z,97834.88
2023-10-05T07:52:26.743Z,97830.16
2023-10-05T07:54:54.425Z,97833.03
2023-10-05T07:57:22.049Z,97849.25
2023-10-05T07:59:49.758Z,97854.91
2023-10-05T08:02:19.299Z,97847.19
2023-10-05T08:04:49.560Z,97837.72
2023-10-05T08:07:17.523Z,97838.50
2023-10-05T08:09:46.642Z,97847.03
2023-10-05T08:12:14.449Z,97856.63
2023-10-05T08:14:42.321Z,97853.94
2023-10-05T08:17:10.073Z,97856.72
2023-10-05T08:19:38.029Z,97851.31
2023-10-05T08:22:05.842Z,97857.56
2023-10-05T08:24:35.353Z,97853.38
2023-10-05T08:27:04.750Z,97862.38
2023-10-05T08:29:33.690Z,97866.84
2023-10-05T08:32:02.136Z,97862.66
2023-10-05T08:34:33.647Z,97868.72
2023-10-05T08:37:03.357Z,97875.91
2023-10-05T08:39:36.602Z,97877.31
2023-10-05T08:42:08.011Z,97864.69
2023-10-05T08:44:39.667Z,97874.94
2023-10-05T08:47:12.047Z,97874.63
2023-10-05T08:49:40.740Z,97876.03
2023-10-05T08:52:14.726Z,97879.81
2023-10-05T08:54:46.984Z,97868.00
2023-10-05T08:57:18.149Z,97862.25
2023-10-05T08:59:47.695Z,97868.69
2023-10-05T09:02:19.853Z,97883.06
2023-10-05T09:04:52.259Z,97885.03
2023-10-05T09:07:36.900Z,97885.06
2023-10-05T09:10:06.945Z,97886.44
2023-10-05T09:12:36.900Z,97875.94
2023-10-05T09:15:08.001Z,97881.38
2023-10-05T09:17:36.519Z,97884.72
2023-10-05T09:20:25.989Z,97888.66
2023-10-05T09:22:55.120Z,97883.38
2023-10-05T09:25:28.857Z,97895.47
2023-10-05T09:28:08.953Z,97890.06
2023-10-05T09:30:50.717Z,97897.41
2023-10-05T09:33:20.554Z,97889.97
2023-10-05T09:35:48.774Z,97882.75
2023-10-05T09:38:18.790Z,97877.66
2023-10-05T09:40:48.267Z,97874.22
2023-10-05T09:43:22.030Z,97872.66
2023-10-05T09:45:53.309Z,97874.06
2023-10-05T09:48:22.452Z,97872.44
2023-10-05T09:50:50.163Z,97879.81
2023-10-05T09:53:20.118Z,97872.84
2023-10-05T09:55:51.283Z,97873.19
2023-10-05T09:58:21.454Z,97865.03
2023-10-05T10:00:56.440Z,97858.00
2023-10-05T10:03:25.438Z,97858.03
2023-10-05T10:05:56.745Z,97847.97
2023-10-05T10:08:28.500Z,97838.25
2023-10-05T10:11:07.844Z,97834.84
2023-10-05T10:13:39.359Z,97826.03
2023-10-05T10:16:28.092Z,97834.00
2023-10-05T10:19:05.063Z,97841.50
2023-10-05T10:21:42.357Z,97838.91
2023-10-05T10:24:15.619Z,97825.59
2023-10-05T10:26:45.721Z,97828.94
2023-10-05T10:29:18.596Z,97830.16
2023-10-05T10:31:50.272Z,97828.47
2023-10-05T10:34:43.327Z,97826.50
2023-10-05T10:37:12.144Z,97808.38
2023-10-05T10:39:39.884Z,97812.16
2023-10-05T10:42:08.656Z,97812.69
2023-10-05T10:44:58.068Z,97823.28
2023-10-05T10:47:27.763Z,97825.31
2023-10-05T10:50:12.737Z,97819.41
2023-10-05T10:52:41.319Z,97810.91
2023-10-05T10:55:15.511Z,97821.50
2023-10-05T10:57:47.651Z,97820.97
2023-10-05T11:00:34.848Z,97820.44
2023-10-05T11:03:10.745Z,97825.63
2023-10-05T11:05:42.996Z,97829.19
2023-10-05T11:08:11.781Z,97828.09
2023-10-05T11:10:38.680Z,97832.91
2023-10-05T11:13:15.529Z,97830.81
2023-10-05T11:16:00.836Z,97831.63
2023-10-05T11:18:31.632Z,97822.88
2023-10-05T11:21:06.734Z,97822.84
2023-10-05T11:23:44.788Z,97833.94
2023-10-05T11:26:19.603Z,97824.34
2023-10-05T11:28:50.206Z,97824.66
2023-10-05T11:31:36.684Z,97810.84
2023-10-05T11:35:16.950Z,97808.03
2023-10-05T11:37:00.462Z,97797.47
2023-10-05T11:39:29.202Z,97810.47
2023-10-05T11:41:58.246Z,97799.47
2023-10-05T11:44:26.814Z,97801.63
2023-10-05T11:46:56.098Z,97803.31
2023-10-05T11:49:31.903Z,97798.28
2023-10-05T11:52:00.363Z,97791.00
2023-10-05T11:54:31.198Z,97780.50
2023-10-05T11:57:02.184Z,97780.91
2023-10-05T11:59:31.825Z,97784.03
2023-10-05T12:02:00.995Z,97774.94
2023-10-05T12:04:28.897Z,97777.84
2023-10-05T12:07:02.608Z,97777.75
2023-10-05T12:09:33.359Z,97778.13
2023-10-05T12:12:02.573Z,97765.19
2023-10-05T12:14:30.202Z,97764.91
2023-10-05T12:17:01.196Z,97757.28
2023-10-05T12:19:30.141Z,97763.53
2023-10-05T12:22:00.575Z,97768.78
2023-10-05T12:24:28.614Z,97760.03
2023-10-05T12:26:59.778Z,97761.50
2023-10-05T12:29:29.286Z,97771.13
2023-10-05T12:32:02.274Z,97768.31
2023-10-05T12:34:33.007Z,97768.00
2023-10-05T12:37:01.474Z,97768.34
2023-10-05T12:39:30.778Z,97770.22
2023-10-05T12:41:58.772Z,97779.28
2023-10-05T12:44:26.578Z,97780.16
2023-10-05T12:46:54.260Z,97781.84
2023-10-05T12:49:22.365Z,97777.03
2023-10-05T12:51:52.555Z,97791.94
2023-10-05T12:54:20.357Z,97793.63
2023-10-05T12:56:48.258Z,97802.53
2023-10-05T12:59:16.694Z,97795.81
2023-10-05T13:01:44.769Z,97782.13
2023-10-05T13:04:13.100Z,97775.88
2023-10-05T13:06:41.266Z,97777.19
2023-10-05T13:09:14.077Z,97777.75
2023-10-05T13:11:45.938Z,97773.50
2023-10-05T13:14:15.662Z,97763.03
2023-10-05T13:16:45.397Z,97768.47
2023-10-05T13:19:14.372Z,97767.97
2023-10-05T13:21:43.914Z,97756.94
2023-10-05T13:24:14.069Z,97757.00
2023-10-05T13:26:45.395Z,97745.78
2023-10-05T13:29:13.813Z,97759.88
2023-10-05T13:31:42.861Z,97762.56
2023-10-05T13:34:12.663Z,97775.38
2023-10-05T13:36:40.280Z,97773.53
2023-10-05T13:39:11.485Z,97770.34
2023-10-05T13:41:45.439Z,97771.41
2023-10-05T13:44:13.090Z,97761.41
2023-10-05T13:46:45.924Z,97748.00
2023-10-05T13:49:14.678Z,97747.41
2023-10-05T13:51:42.391Z,97743.81
2023-10-05T13:54:13.938Z,97740.25
2023-10-05T13:56:42.970Z,97730.44
2023-10-05T13:59:18.562Z,97729.91
2023-10-05T14:01:47.139Z,97737.81
2023-10-05T14:04:19.733Z,97728.50
2023-10-05T14:06:47.638Z,97724.47
2023-10-05T14:09:17.174Z,97716.22
2023-10-05T14:11:46.771Z,97703.63
2023-10-05T14:14:15.964Z,97707.28
2023-10-05T14:16:50.371Z,97708.94
2023-10-05T14:19:19.099Z,97715.19
2023-10-05T14:21:47.531Z,97716.66
2023-10-05T14:24:18.893Z,97715.78
2023-10-05T14:26:50.350Z,97721.06
2023-10-05T14:29:18.586Z,97728.22
2023-10-05T14:31:49.388Z,97727.59
2023-10-05T14:34:20.016Z,97729.53
2023-10-05T14:36:49.899Z,97723.09
2023-10-05T14:39:22.657Z,97721.75
2023-10-05T14:41:56.108Z,97730.16
2023-10-05T14:44:26.433Z,97722.66
2023-10-05T14:46:56.468Z,97710.38
2023-10-05T14:49:24.467Z,97697.66
2023-10-05T14:51:52.616Z,97708.28
2023-10-05T14:54:23.304Z,97716.53
2023-10-05T14:56:52.809Z,97718.59
2023-10-05T14:59:20.819Z,97723.97
2023-10-05T15:01:48.593Z,97720.66
2023-10-05T15:04:18.092Z,97723.09
2023-10-05T15:06:45.723Z,97729.38
2023-10-05T15:09:21.526Z,97740.16
2023-10-05T15:11:49.379Z,97735.53
2023-10-05T15:14:18.726Z,97743.94
2023-10-05T15:16:46.405Z,97749.75
2023-10-05T15:19:14.137Z,97749.06
2023-10-05T15:21:42.156Z,97741.66
2023-10-05T15:24:12.356Z,97733.13
2023-10-05T15:26:41.381Z,97728.56
2023-10-05T15:29:11.390Z,97719.38
2023-10-05T15:31:43.095Z,97716.59
2023-10-05T15:34:10.859Z,97710.56
2023-10-05T15:36:39.177Z,97727.75
2023-10-05T15:39:08.222Z,97729.88
2023-10-05T15:41:36.714Z,97733.34
2023-10-05T15:44:05.572Z,97721.03
2023-10-05T15:46:32.330Z,97709.84
2023-10-05T15:49:01.759Z,97714.34
2023-10-05T15:51:32.338Z,97713.06
2023-10-05T15:54:02.856Z,97708.63
2023-10-05T15:56:31.083Z,97701.47
2023-10-05T15:59:00.569Z,97711.28
2023-10-05T16:01:28.605Z,97701.91
2023-10-05T16:03:57.638Z,97699.41
2023-10-05T16:06:27.514Z,97693.59
2023-10-05T16:08:58.303Z,97701.00
2023-10-05T16:11:26.192Z,97694.97
2023-10-05T16:13:53.792Z,97686.41
2023-10-05T16:16:22.223Z,97684.97
2023-10-05T16:18:50.014Z,97681.19
2023-10-05T16:21:17.569Z,97695.53
2023-10-05T16:23:46.484Z,97700.59
2023-10-05T16:26:14.219Z,97695.09
2023-10-05T16:28:41.854Z,97694.88
2023-10-05T16:31:09.461Z,97708.38
2023-10-05T16:33:37.360Z,97712.56
2023-10-05T16:36:05.642Z,97726.59
2023-10-05T16:38:33.865Z,97718.44
2023-10-05T16:41:03.139Z,97709.00
2023-10-05T16:43:30.842Z,97715.28
2023-10-05T16:45:59.062Z,97725.97
2023-10-05T16:48:27.739Z,97719.75
2023-10-05T16:50:55.558Z,97728.66
2023-10-05T16:53:23.145Z,97735.44
2023-10-05T16:55:51.098Z,97738.28
2023-10-05T16:58:20.365Z,97734.72
2023-10-05T17:00:48.178Z,97744.53
2023-10-05T17:03:16.574Z,97757.94
2023-10-05T17:05:44.451Z,97766.22
2023-10-05T17:08:12.073Z,97773.28
2023-10-05T17:10:40.989Z,97765.44
2023-10-05T17:13:08.818Z,97763.56
2023-10-05T17:15:38.114Z,97762.44
2023-10-05T17:18:06.622Z,97765.63
2023-10-05T17:20:34.494Z,97764.66
2023-10-05T17:23:02.130Z,97771.44
2023-10-05T17:25:29.846Z,97769.03
2023-10-05T17:27:57.851Z,97763.63
2023-10-05T17:30:25.665Z,97756.94
2023-10-05T17:32:54.590Z,97751.78
2023-10-05T17:35:24.294Z,97755.69
2023-10-05T17:37:52.674Z,97757.13
2023-10-05T17:40:23.194Z,97758.19
2023-10-05T17:42:51.023Z,97764.50
2023-10-05T17:45:19.504Z,97771.44
2023-10-05T17:47:47.247Z,97771.09
2023-10-05T17:50:17.085Z,97769.53
2023-10-05T17:52:45.727Z,97767.25
2023-10-05T17:55:13.925Z,97764.53
2023-10-05T17:57:41.615Z,97764.34
2023-10-05T18:00:16.189Z,97767.47
2023-10-05T18:02:44.703Z,97769.03
2023-10-05T18:05:16.431Z,97774.81
2023-10-05T18:07:45.889Z,97773.69
2023-10-05T18:10:13.736Z,97767.97
2023-10-05T18:12:41.845Z,97768.72
2023-10-05T18:15:10.174Z,97763.53
2023-10-05T18:17:38.086Z,97770.97
2023-10-05T18:20:08.310Z,97771.75
2023-10-05T18:22:35.910Z,97782.28
2023-10-05T18:25:05.591Z,97779.00
2023-10-05T18:27:33.270Z,97787.81
2023-10-05T18:30:01.017Z,97791.66
2023-10-05T18:32:29.631Z,97795.31
2023-10-05T18:34:57.354Z,97795.63
2023-10-05T18:37:25.052Z,97796.00
2023-10-05T18:39:52.659Z,97797.53
2023-10-05T18:42:21.658Z,97794.50
2023-10-05T18:44:50.036Z,97809.66
2023-10-05T18:47:17.837Z,97809.47
2023-10-05T18:49:45.485Z,97807.69
2023-10-05T18:52:14.999Z,97813.91
2023-10-05T18:54:43.531Z,97800.97
2023-10-05T18:57:12.078Z,97807.22
2023-10-05T18:59:41.257Z,97812.47
2023-10-05T19:02:09.616Z,97813.78
2023-10-05T19:04:37.339Z,97816.22
2023-10-05T19:07:04.955Z,97813.16
2023-10-05T19:09:33.032Z,97816.41
2023-10-05T19:12:01.895Z,97807.59
2023-10-05T19:14:29.495Z,97808.56
2023-10-05T19:16:59.304Z,97810.19
2023-10-05T19:19:26.936Z,97818.13
2023-10-05T19:21:54.633Z,97817.25
2023-10-05T19:24:22.311Z,97815.28
2023-10-05T19:26:50.103Z,97817.53
2023-10-05T19:29:18.277Z,97812.97
2023-10-05T19:31:46.042Z,97818.22
2023-10-05T19:34:16.402Z,97815.88
2023-10-05T19:36:44.040Z,97814.13
2023-10-05T19:39:12.216Z,97809.97
2023-10-05T19:41:39.902Z,97819.84
2023-10-05T19:44:07.929Z,97823.41
2023-10-05T19:46:37.038Z,97816.03
2023-10-05T19:49:07.368Z,97821.31
2023-10-05T19:51:36.454Z,97828.41
2023-10-05T19:54:04.850Z,97827.19
2023-10-05T19:56:37.439Z,97831.25
2023-10-05T19:59:05.862Z,97836.81
2023-10-05T20:01:33.741Z,97835.22
2023-10-05T20:04:01.801Z,97841.84
2023-10-05T20:06:29.954Z,97840.66
2023-10-05T20:08:59.397Z,97845.34
2023-10-05T20:11:27.051Z,97846.59
2023-10-05T20:13:54.735Z,97852.97
2023-10-05T20:16:22.503Z,97842.63
2023-10-05T20:18:50.121Z,97849.22
2023-10-05T20:21:17.921Z,97850.63
2023-10-05T20:23:45.504Z,97848.75
2023-10-05T20:26:14.411Z,97846.38
2023-10-05T20:28:42.178Z,97844.84
2023-10-05T20:31:11.070Z,97846.38
2023-10-05T20:33:38.842Z,97843.28
2023-10-05T20:36:08.045Z,97844.59
2023-10-05T20:38:36.178Z,97853.13
2023-10-05T20:41:06.238Z,97852.84
2023-10-05T20:43:35.603Z,97852.41
2023-10-05T20:46:06.598Z,97847.38
2023-10-05T20:48:35.111Z,97856.44
2023-10-05T20:51:02.881Z,97857.69
2023-10-05T20:53:30.408Z,97853.00
2023-10-05T20:55:58.197Z,97862.38
2023-10-05T20:58:26.036Z,97859.28
2023-10-05T21:00:55.429Z,97855.16
2023-10-05T21:03:23.136Z,97849.88
2023-10-05T21:05:50.811Z,97844.03
2023-10-05T21:08:18.365Z,97844.91
2023-10-05T21:10:47.891Z,97843.91
2023-10-05T21:13:15.594Z,97849.97
2023-10-05T21:15:43.179Z,97858.81
2023-10-05T21:18:12.144Z,97859.06
2023-10-05T21:20:40.207Z,97856.13
2023-10-05T21:23:07.888Z,97847.88
2023-10-05T21:25:35.737Z,97852.78
2023-10-05T21:28:03.732Z,97844.38
2023-10-05T21:30:31.506Z,97850.34
2023-10-05T21:32:59.150Z,97850.59
2023-10-05T21:35:28.145Z,97846.91
2023-10-05T21:37:57.200Z,97849.47
2023-10-05T21:40:24.892Z,97842.72
2023-10-05T21:42:52.494Z,97855.03
2023-10-05T21:45:20.677Z,97846.88
2023-10-05T21:47:49.258Z,97836.06
2023-10-05T21:50:20.187Z,97831.63
2023-10-05T21:52:49.671Z,97830.94
2023-10-05T21:55:17.276Z,97833.41
2023-10-05T21:57:44.868Z,97828.19
2023-10-05T22:00:20.093Z,97831.31
2023-10-05T22:02:47.855Z,97834.50
2023-10-05T22:05:16.929Z,97828.44
2023-10-05T22:07:46.099Z,97820.00
2023-10-05T22:10:15.156Z,97817.44
2023-10-05T22:12:42.758Z,97817.88
2023-10-05T22:15:11.778Z,97818.13
2023-10-05T22:17:39.419Z,97821.56
2023-10-05T22:20:13.802Z,97813.38
2023-10-05T22:22:41.799Z,97812.34
2023-10-05T22:25:11.158Z,97813.69
2023-10-05T22:27:40.130Z,97812.13
2023-10-05T22:30:09.345Z,97817.03
2023-10-05T22:32:37.365Z,97817.53
2023-10-05T22:35:05.689Z,97831.03
2023-10-05T22:37:33.344Z,97826.53
2023-10-05T22:40:01.010Z,97827.81
2023-10-05T22:42:28.599Z,97818.81
2023-10-05T22:44:57.523Z,97813.75
2023-10-05T22:47:26.038Z,97829.13
2023-10-05T22:49:53.722Z,97828.16
2023-10-05T22:52:21.539Z,97830.38
2023-10-05T22:54:49.184Z,97834.41
2023-10-05T22:57:16.783Z,97835.91
2023-10-05T22:59:45.123Z,97839.19
2023-10-05T23:02:15.310Z,97848.50
2023-10-05T23:04:44.059Z,97852.84
2023-10-05T23:07:12.118Z,97853.09
2023-10-05T23:09:40.608Z,97854.91
2023-10-05T23:12:12.203Z,97856.44
2023-10-05T23:14:40.051Z,97858.50
2023-10-05T23:17:08.870Z,97854.53
2023-10-05T23:19:38.640Z,97854.59
2023-10-05T23:22:06.481Z,97851.81
2023-10-05T23:24:35.550Z,97854.91
2023-10-05T23:27:05.342Z,97856.00
2023-10-05T23:29:33.361Z,97854.41
2023-10-05T23:32:01.615Z,97844.63
2023-10-05T23:34:36.465Z,97851.75
2023-10-05T23:37:09.068Z,97862.59
2023-10-05T23:39:37.088Z,97863.63
2023-10-05T23:42:11.820Z,97860.22
2023-10-05T23:44:40.704Z,97869.09
2023-10-05T23:47:23.884Z,97876.63
2023-10-05T23:49:54.363Z,97874.44
2023-10-05T23:52:24.114Z,97882.47
2023-10-05T23:54:51.685Z,97876.94
2023-10-05T23:57:21.512Z,97877.59
2023-10-05T23:59:49.882Z,97882.06
